Time;durP1;ratioP1;P1;durP2;ratioP2;P2;SDS_P1;SDS_P2;PMS_P1;PMS_P2;Temp;Humidity;BMP_temperature;BMP_pressure;BME280_temperature;BME280_humidity;BME280_pressure;Samples;Min_cycle;Max_cycle;Signal;HPM_P1;HPM_P2
2022/05/05 00:02:01;;;;;;;3.50;1.65;;;;;;;7.36;97.14;101696.03;6245271;28;20049;-70
2022/05/05 00:05:03;;;;;;;2.00;1.80;;;;;;;7.40;98.03;101693.31;6246462;28;20057;-70
2022/05/05 00:08:05;;;;;;;2.03;1.40;;;;;;;7.34;97.76;101689.97;6246117;28;20497;-69
2022/05/05 00:14:27;;;;;;;3.25;1.52;;;;;;;7.24;98.49;101698.06;6247669;28;20054;-70
2022/05/05 00:17:33;;;;;;;3.63;1.58;;;;;;;7.21;99.27;101701.59;6251112;28;20053;-70
2022/05/05 00:20:35;;;;;;;4.93;1.63;;;;;;;7.24;99.98;101705.91;6250114;28;20053;-69
2022/05/05 00:23:36;;;;;;;4.90;1.77;;;;;;;7.22;99.86;101710.31;6251971;28;20045;-70
2022/05/05 00:26:37;;;;;;;1.88;1.42;;;;;;;7.06;100.00;101705.47;6250788;28;20056;-70
2022/05/05 00:29:39;;;;;;;3.53;1.70;;;;;;;6.89;100.00;101715.44;6250681;28;20050;-69
2022/05/05 00:32:41;;;;;;;6.03;1.92;;;;;;;6.82;100.00;101714.72;6250988;28;20497;-70
2022/05/05 00:35:43;;;;;;;3.58;1.85;;;;;;;6.84;100.00;101710.31;6250668;28;20057;-69
2022/05/05 00:38:44;;;;;;;3.30;1.70;;;;;;;6.89;100.00;101717.19;6250570;28;20083;-70
2022/05/05 00:41:47;;;;;;;2.75;1.88;;;;;;;6.90;100.00;101709.31;6249994;28;20050;-70
2022/05/05 00:44:49;;;;;;;2.70;1.88;;;;;;;6.85;100.00;101716.38;6250317;28;20056;-70
2022/05/05 00:47:51;;;;;;;4.20;1.80;;;;;;;6.81;100.00;101717.34;6250141;28;20049;-69
2022/05/05 00:50:53;;;;;;;3.17;1.98;;;;;;;6.76;100.00;101717.44;6260262;28;20061;-70
2022/05/05 00:53:54;;;;;;;3.97;1.65;;;;;;;6.68;100.00;101721.16;6273214;28;20052;-69
2022/05/05 00:56:56;;;;;;;5.88;1.90;;;;;;;6.59;100.00;101724.81;6261799;28;20049;-70
2022/05/05 01:00:00;;;;;;;5.10;2.08;;;;;;;6.58;100.00;101720.47;6249744;28;20049;-70
2022/05/05 01:03:03;;;;;;;2.05;1.75;;;;;;;6.53;100.00;101712.72;6267149;28;20045;-69
2022/05/05 01:06:06;;;;;;;7.30;2.55;;;;;;;6.46;100.00;101718.97;6251966;28;20671;-69
2022/05/05 01:09:08;;;;;;;1.40;1.30;;;;;;;6.42;100.00;101721.69;6250038;28;20053;-69
2022/05/05 01:12:10;;;;;;;1.48;1.33;;;;;;;6.39;100.00;101722.59;6257139;28;20489;-70
2022/05/05 01:15:11;;;;;;;6.07;2.17;;;;;;;6.42;100.00;101725.16;6259242;28;20057;-70
2022/05/05 01:18:14;;;;;;;3.55;1.88;;;;;;;6.40;100.00;101720.84;6249655;28;20053;-70
2022/05/05 01:21:15;;;;;;;1.92;1.55;;;;;;;6.33;100.00;101738.41;6248848;28;20484;-69
2022/05/05 01:28:10;;;;;;;2.13;1.20;;;;;;;6.27;100.00;101730.69;6266623;28;20049;-70
2022/05/05 01:30:59;;;;;;;7.63;2.10;;;;;;;6.24;100.00;101725.53;6252951;28;20133;-69
2022/05/05 01:34:00;;;;;;;2.30;1.63;;;;;;;6.23;100.00;101734.25;6273982;28;20068;-69
2022/05/05 01:37:02;;;;;;;2.72;1.48;;;;;;;6.18;100.00;101736.09;6273848;28;20052;-70
2022/05/05 01:40:05;;;;;;;2.00;1.58;;;;;;;6.20;100.00;101739.53;6273311;28;20060;-69
2022/05/05 01:43:07;;;;;;;2.42;1.80;;;;;;;6.12;100.00;101738.78;6273503;28;20048;-69
2022/05/05 01:46:09;;;;;;;4.30;2.42;;;;;;;6.04;100.00;101744.16;6273664;28;20447;-70
2022/05/05 01:49:10;;;;;;;2.97;2.42;;;;;;;5.96;100.00;101740.84;6273654;28;20053;-70
2022/05/05 01:52:12;;;;;;;4.68;2.03;;;;;;;5.95;100.00;101745.22;6272570;28;20088;-69
2022/05/05 01:55:14;;;;;;;2.97;2.03;;;;;;;5.93;100.00;101749.56;6271951;28;20421;-68
2022/05/05 01:58:16;;;;;;;2.90;1.75;;;;;;;5.87;100.00;101756.63;6273468;28;20053;-70
2022/05/05 02:01:17;;;;;;;3.53;1.85;;;;;;;5.87;100.00;101759.25;6272916;28;20140;-70
2022/05/05 02:04:19;;;;;;;10.15;2.35;;;;;;;5.79;100.00;101767.19;6273089;28;20492;-69
2022/05/05 02:07:20;;;;;;;5.00;2.30;;;;;;;5.72;100.00;101760.34;6273408;28;20049;-70
2022/05/05 02:10:24;;;;;;;3.50;1.95;;;;;;;5.76;100.00;101767.22;6272509;28;20072;-69
2022/05/05 02:13:26;;;;;;;3.92;1.90;;;;;;;5.66;100.00;101766.53;6272877;28;20118;-69
2022/05/05 02:16:27;;;;;;;6.88;2.60;;;;;;;5.62;100.00;101759.63;6273061;28;20412;-69
2022/05/05 02:19:28;;;;;;;5.00;2.20;;;;;;;5.58;100.00;101778.81;6272661;28;20056;-70
2022/05/05 02:22:30;;;;;;;4.85;2.20;;;;;;;5.50;100.00;101768.53;6272001;28;20041;-69
2022/05/05 02:25:33;;;;;;;3.03;1.80;;;;;;;5.57;100.00;101770.13;6252251;28;20088;-69
2022/05/05 02:28:34;;;;;;;3.95;2.05;;;;;;;5.58;100.00;101768.38;6247824;28;20394;-69
2022/05/05 02:31:35;;;;;;;6.50;2.10;;;;;;;5.55;100.00;101765.84;6247116;28;20053;-69
2022/05/05 02:34:37;;;;;;;4.25;2.63;;;;;;;5.43;100.00;101768.66;6247716;28;20056;-69
2022/05/05 02:41:01;;;;;;;3.03;2.05;;;;;;;5.26;100.00;101766.28;6247099;28;20053;-70
2022/05/05 02:44:03;;;;;;;12.50;2.28;;;;;;;5.22;100.00;101769.81;6247591;28;20722;-70
2022/05/05 02:47:06;;;;;;;3.30;2.05;;;;;;;5.28;100.00;101772.34;6247659;28;20049;-70
2022/05/05 02:50:08;;;;;;;2.75;1.67;;;;;;;5.24;100.00;101765.47;6251006;28;20128;-69
2022/05/05 02:56:26;;;;;;;2.92;1.83;;;;;;;5.32;100.00;101763.59;6264645;28;20049;-69
2022/05/05 02:59:27;;;;;;;3.70;2.05;;;;;;;5.22;100.00;101762.00;6272357;28;20508;-69
2022/05/05 03:02:29;;;;;;;3.15;2.10;;;;;;;5.17;100.00;101763.81;6270919;28;20060;-70
2022/05/05 03:05:30;;;;;;;7.82;3.25;;;;;;;5.07;100.00;101763.09;6262170;28;20053;-69
2022/05/05 03:08:31;;;;;;;2.75;1.95;;;;;;;4.92;100.00;101769.38;6253830;28;20508;-70
2022/05/05 03:11:34;;;;;;;3.30;2.25;;;;;;;4.93;100.00;101768.50;6261080;28;20072;-70
2022/05/05 03:14:35;;;;;;;2.55;1.95;;;;;;;4.97;100.00;101772.78;6247847;28;20052;-69
2022/05/05 03:17:37;;;;;;;2.97;1.90;;;;;;;4.95;100.00;101771.06;6248292;28;20053;-69
2022/05/05 03:20:38;;;;;;;7.10;1.90;;;;;;;4.92;100.00;101776.34;6246243;28;20050;-70
2022/05/05 03:23:40;;;;;;;3.50;2.22;;;;;;;4.84;100.00;101776.44;6259916;28;20048;-69
2022/05/05 03:26:42;;;;;;;6.85;1.90;;;;;;;4.86;100.00;101776.41;6271701;28;20059;-70
2022/05/05 03:29:44;;;;;;;1.80;1.70;;;;;;;4.91;100.00;101774.63;6271784;28;20053;-69
2022/05/05 03:32:45;;;;;;;3.35;2.15;;;;;;;4.92;100.00;101771.13;6254363;28;20041;-70
2022/05/05 03:35:47;;;;;;;2.92;1.50;;;;;;;4.89;100.00;101768.56;6249381;28;20050;-69
2022/05/05 03:38:48;;;;;;;3.55;2.65;;;;;;;4.86;100.00;101771.19;6252601;28;20052;-70
2022/05/05 03:41:51;;;;;;;2.35;1.50;;;;;;;4.82;100.00;101771.25;6270320;28;20504;-69
2022/05/05 03:44:52;;;;;;;3.40;1.90;;;;;;;4.79;100.00;101773.88;6271039;28;20045;-69
2022/05/05 03:47:53;;;;;;;4.63;2.08;;;;;;;4.67;100.00;101780.97;6264779;28;20221;-69
2022/05/05 03:50:55;;;;;;;2.85;1.75;;;;;;;4.57;100.00;101782.84;6261973;28;20053;-69
2022/05/05 03:53:56;;;;;;;3.55;1.77;;;;;;;4.54;100.00;101783.75;6253677;28;20053;-69
2022/05/05 03:56:59;;;;;;;2.47;1.85;;;;;;;4.51;100.00;101778.56;6251564;28;20057;-69
2022/05/05 04:00:00;;;;;;;3.15;2.15;;;;;;;4.53;100.00;101796.78;6251221;28;20057;-69
2022/05/05 04:06:20;;;;;;;4.50;2.17;;;;;;;4.44;100.00;101797.72;6251694;28;20665;-69
2022/05/05 04:09:22;;;;;;;2.40;2.15;;;;;;;4.44;100.00;101795.13;6250947;28;20053;-69
2022/05/05 04:12:24;;;;;;;8.93;2.10;;;;;;;4.42;100.00;101799.50;6250346;28;20049;-69
2022/05/05 04:15:26;;;;;;;3.33;2.20;;;;;;;4.44;100.00;101802.94;6250976;28;20050;-70
2022/05/05 04:18:27;;;;;;;4.43;1.83;;;;;;;4.53;100.00;101807.19;6251094;28;20140;-70
2022/05/05 04:21:28;;;;;;;3.58;2.15;;;;;;;4.56;100.00;101812.38;6251261;28;20053;-70
2022/05/05 04:24:30;;;;;;;3.42;2.03;;;;;;;4.56;100.00;101813.22;6250595;28;20057;-70
2022/05/05 04:27:33;;;;;;;5.65;2.63;;;;;;;4.56;100.00;101809.75;6251090;28;20060;-70
2022/05/05 04:30:35;;;;;;;2.47;1.52;;;;;;;4.59;100.00;101822.75;6249261;28;20068;-71
2022/05/05 04:33:38;;;;;;;4.00;2.10;;;;;;;4.68;100.00;101822.66;6250397;28;20052;-70
2022/05/05 04:36:39;;;;;;;4.47;1.80;;;;;;;4.73;100.00;101813.03;6250400;28;20060;-70
2022/05/05 04:39:42;;;;;;;2.40;2.20;;;;;;;4.77;100.00;101812.13;6250531;28;20056;-70
2022/05/05 04:42:44;;;;;;;2.72;1.70;;;;;;;4.80;100.00;101812.06;6249819;28;20049;-70
2022/05/05 04:45:46;;;;;;;2.05;1.80;;;;;;;4.79;100.00;101817.31;6250544;28;20056;-70
2022/05/05 04:48:48;;;;;;;3.38;2.10;;;;;;;4.85;100.00;101830.22;6250328;28;20060;-70
2022/05/05 04:51:49;;;;;;;6.47;2.35;;;;;;;4.90;100.00;101836.25;6262879;28;20053;-71
2022/05/05 04:54:51;;;;;;;5.15;2.85;;;;;;;4.95;100.00;101836.19;6270458;28;20042;-70
2022/05/05 04:57:54;;;;;;;3.88;2.60;;;;;;;5.00;100.00;101840.47;6263591;28;20048;-70
2022/05/05 05:00:55;;;;;;;6.20;3.00;;;;;;;5.09;100.00;101849.94;6252135;28;20504;-70
2022/05/05 05:03:56;;;;;;;6.47;3.25;;;;;;;5.13;100.00;101855.94;6268789;28;20054;-71
2022/05/05 05:06:58;;;;;;;5.63;3.33;;;;;;;5.17;100.00;101850.66;6250053;28;20080;-70
2022/05/05 05:09:59;;;;;;;5.90;3.33;;;;;;;5.22;100.00;101854.09;6249445;28;20057;-70
2022/05/05 05:13:02;;;;;;;5.75;3.25;;;;;;;5.29;100.00;101855.72;6257400;28;20056;-70
2022/05/05 05:16:03;;;;;;;6.53;3.60;;;;;;;5.32;100.00;101853.09;6260163;28;20057;-70
2022/05/05 05:19:05;;;;;;;10.90;3.80;;;;;;;5.38;100.00;101862.56;6249704;28;20402;-70
2022/05/05 05:22:06;;;;;;;5.78;3.60;;;;;;;5.45;100.00;101864.22;6266167;28;20057;-70
2022/05/05 05:25:09;;;;;;;6.30;3.40;;;;;;;5.57;100.00;101866.63;6251117;28;20048;-71
2022/05/05 05:28:13;;;;;;;4.88;2.97;;;;;;;5.69;100.00;101869.94;6249513;28;20049;-71
2022/05/05 05:31:16;;;;;;;8.35;3.47;;;;;;;5.76;100.00;101871.56;6272471;28;20049;-71
2022/05/05 05:34:17;;;;;;;6.57;3.78;;;;;;;5.78;100.00;101875.03;6273967;28;20084;-70
2022/05/05 05:37:19;;;;;;;9.52;4.50;;;;;;;5.86;100.00;101870.56;6273955;28;20052;-70
2022/05/05 05:40:20;;;;;;;12.38;3.58;;;;;;;5.90;100.00;101871.34;6273372;28;20045;-71
2022/05/05 05:43:23;;;;;;;7.15;4.18;;;;;;;5.93;100.00;101869.59;6273753;28;20056;-70
2022/05/05 05:46:24;;;;;;;7.47;3.60;;;;;;;5.99;100.00;101881.66;6273842;28;20052;-71
2022/05/05 05:49:26;;;;;;;7.82;4.05;;;;;;;6.08;100.00;101878.91;6273755;28;20052;-70
2022/05/05 05:52:27;;;;;;;11.52;4.90;;;;;;;6.19;100.00;101881.34;6273013;28;20060;-71
2022/05/05 05:55:28;;;;;;;10.93;5.25;;;;;;;6.24;100.00;101882.13;6273562;28;20432;-71
2022/05/05 05:58:31;;;;;;;13.40;5.07;;;;;;;6.27;100.00;101880.34;6271678;28;20048;-71
2022/05/05 06:04:51;;;;;;;12.63;4.72;;;;;;;6.44;100.00;101895.69;6273527;28;20052;-71
2022/05/05 06:07:52;;;;;;;17.40;5.68;;;;;;;6.50;100.00;101892.97;6273397;28;20055;-71
2022/05/05 06:10:54;;;;;;;14.70;5.22;;;;;;;6.58;100.00;101892.81;6272008;28;20045;-70
2022/05/05 06:13:57;;;;;;;9.00;5.15;;;;;;;6.71;100.00;101893.47;6272466;28;20049;-70
2022/05/05 06:16:59;;;;;;;9.60;5.10;;;;;;;6.77;100.00;101893.38;6272814;28;20122;-71
2022/05/05 06:20:00;;;;;;;14.40;5.47;;;;;;;6.82;100.00;101895.00;6272749;28;20056;-70
2022/05/05 06:23:01;;;;;;;9.75;5.13;;;;;;;6.87;100.00;101902.75;6272195;28;20409;-71
2022/05/05 06:26:04;;;;;;;11.32;5.55;;;;;;;6.92;100.00;101906.13;6272916;28;20045;-71
2022/05/05 06:29:07;;;;;;;19.42;7.00;;;;;;;6.98;100.00;101903.38;6270919;28;20055;-71
2022/05/05 06:32:09;;;;;;;16.05;6.47;;;;;;;7.05;100.00;101901.53;6272136;28;20556;-71
2022/05/05 06:35:11;;;;;;;15.57;5.22;;;;;;;7.11;100.00;101901.38;6272396;28;20045;-70
2022/05/05 06:38:12;;;;;;;16.73;6.03;;;;;;;7.20;100.00;101903.81;6272544;28;20123;-70
2022/05/05 06:41:14;;;;;;;10.52;5.45;;;;;;;7.31;100.00;101903.56;6269912;28;20146;-70
2022/05/05 06:44:16;;;;;;;13.77;5.35;;;;;;;7.33;100.00;101915.72;6263738;28;20041;-70
2022/05/05 06:47:18;;;;;;;22.92;6.55;;;;;;;7.41;100.00;101915.59;6248019;28;20092;-71
2022/05/05 06:50:21;;;;;;;9.55;4.38;;;;;;;7.46;100.00;101916.34;6252308;28;20044;-71
2022/05/05 06:53:22;;;;;;;9.05;5.03;;;;;;;7.52;100.00;101920.56;6269300;28;20075;-71
2022/05/05 06:56:25;;;;;;;12.60;6.30;;;;;;;7.57;100.00;101930.03;6263145;28;20049;-71
2022/05/05 06:59:27;;;;;;;13.07;5.63;;;;;;;7.65;100.00;101922.03;6265416;28;20181;-71
2022/05/05 07:02:29;;;;;;;17.00;5.80;;;;;;;7.78;100.00;101918.25;6253461;28;20493;-71
2022/05/05 07:05:33;;;;;;;11.75;5.93;;;;;;;7.92;100.00;101919.69;6247392;28;20515;-70
2022/05/05 07:11:50;;;;;;;8.77;3.83;;;;;;;8.06;100.00;101923.69;6261386;28;20052;-71
2022/05/05 07:14:53;;;;;;;10.32;3.67;;;;;;;8.17;100.00;101912.94;6258855;28;20050;-70
2022/05/05 07:17:54;;;;;;;8.48;4.72;;;;;;;8.30;100.00;101918.75;6250164;28;20049;-73
2022/05/05 07:20:55;;;;;;;9.93;4.70;;;;;;;8.44;100.00;101923.66;6271199;28;20637;-70
2022/05/05 07:23:57;;;;;;;7.40;3.47;;;;;;;8.50;100.00;101926.16;6271451;28;20049;-70
2022/05/05 07:26:59;;;;;;;5.47;3.05;;;;;;;8.53;98.20;101933.91;6265670;28;20523;-71
2022/05/05 07:30:02;;;;;;;10.20;2.90;;;;;;;8.60;97.33;101925.00;6266910;28;20428;-71
2022/05/05 07:33:04;;;;;;;6.65;3.22;;;;;;;8.63;98.65;101935.41;6270681;28;20136;-71
2022/05/05 07:36:06;;;;;;;8.35;3.13;;;;;;;8.66;97.65;101935.31;6270811;28;20044;-71
2022/05/05 07:39:08;;;;;;;3.90;1.98;;;;;;;8.69;96.57;101937.84;6271285;28;20053;-71
2022/05/05 07:42:09;;;;;;;5.22;2.10;;;;;;;8.75;97.52;101935.06;6270433;28;20049;-71
2022/05/05 07:45:12;;;;;;;7.50;3.17;;;;;;;8.82;96.42;101930.53;6260945;28;20435;-70
2022/05/05 07:48:14;;;;;;;7.00;3.20;;;;;;;8.93;98.50;101930.22;6248413;28;20053;-71
2022/05/05 07:51:16;;;;;;;6.93;2.92;;;;;;;9.01;99.62;101938.75;6270671;28;20056;-71
2022/05/05 07:54:37;;;;;;;6.95;3.03;;;;;;;9.01;95.07;101936.97;6270968;28;20057;-70
2022/05/05 07:57:43;;;;;;;4.25;2.88;;;;;;;9.00;97.27;101943.13;6269539;28;20052;-70
2022/05/05 08:00:46;;;;;;;5.93;2.78;;;;;;;9.10;97.79;101947.22;6270359;28;20048;-69
2022/05/05 08:03:47;;;;;;;6.00;3.00;;;;;;;9.15;93.76;101947.09;6248095;28;20444;-70
2022/05/05 08:06:49;;;;;;;3.85;2.22;;;;;;;9.22;93.37;101943.41;6246176;28;20164;-70
2022/05/05 08:09:50;;;;;;;5.15;2.72;;;;;;;9.27;95.16;101945.91;6246024;28;20054;-70
2022/05/05 08:12:51;;;;;;;3.58;2.22;;;;;;;9.35;95.32;101952.59;6255765;28;20052;-70
2022/05/05 08:15:54;;;;;;;10.20;2.20;;;;;;;9.47;92.44;101963.66;6268979;28;20385;-70
2022/05/05 08:18:56;;;;;;;3.92;1.95;;;;;;;9.51;93.11;101954.81;6270764;28;20060;-70
2022/05/05 08:21:57;;;;;;;6.00;2.58;;;;;;;9.53;91.14;101958.22;6248563;28;20049;-70
2022/05/05 08:28:29;;;;;;;3.50;2.50;;;;;;;9.58;91.60;101967.72;6247212;28;20053;-71
2022/05/05 08:31:31;;;;;;;4.32;2.22;;;;;;;9.69;89.63;101962.13;6245496;28;20057;-71
2022/05/05 08:34:33;;;;;;;3.90;2.25;;;;;;;9.72;88.47;101963.78;6245695;28;20048;-71
2022/05/05 08:37:34;;;;;;;2.65;1.92;;;;;;;9.76;90.71;101962.78;6269760;28;20052;-71
2022/05/05 08:40:40;;;;;;;4.45;2.35;;;;;;;9.86;86.74;101969.50;6272999;28;20515;-71
2022/05/05 08:43:42;;;;;;;4.90;2.25;;;;;;;9.94;87.49;101970.09;6255324;28;20416;-70
2022/05/05 08:46:47;;;;;;;4.60;2.38;;;;;;;10.05;86.37;101970.66;6250389;28;20068;-71
2022/05/05 08:49:48;;;;;;;5.60;2.28;;;;;;;10.08;85.31;101972.28;6250951;28;20505;-71
2022/05/05 08:52:50;;;;;;;5.85;2.60;;;;;;;10.13;86.96;101967.78;6273515;28;20143;-71
2022/05/05 08:55:52;;;;;;;3.58;2.72;;;;;;;10.20;89.39;101982.41;6273084;28;20439;-71
2022/05/05 08:58:53;;;;;;;4.43;2.50;;;;;;;10.31;83.35;101969.84;6274661;28;20049;-71
2022/05/05 09:01:56;;;;;;;3.97;2.08;;;;;;;10.40;84.82;101972.19;6269348;28;20053;-71
2022/05/05 09:04:58;;;;;;;8.77;3.00;;;;;;;10.57;83.55;101976.00;6250030;28;20056;-71
2022/05/05 09:07:59;;;;;;;6.70;2.35;;;;;;;10.69;82.15;101974.72;6249636;28;20068;-71
2022/05/05 09:11:02;;;;;;;3.08;2.25;;;;;;;10.73;82.00;101966.69;6249331;28;20049;-71
2022/05/05 09:14:07;;;;;;;4.47;2.22;;;;;;;10.78;81.06;101961.28;6249358;28;20444;-71
2022/05/05 09:17:12;;;;;;;4.50;1.95;;;;;;;10.77;81.66;101964.81;6257339;28;20049;-71
2022/05/05 09:20:14;;;;;;;3.17;1.65;;;;;;;10.86;81.21;101961.88;6258247;28;20045;-71
2022/05/05 09:23:28;;;;;;;2.38;1.58;;;;;;;10.97;80.87;101966.75;6248967;28;20052;-72
2022/05/05 09:26:31;;;;;;;2.45;1.50;;;;;;;11.13;74.10;101971.41;6250730;28;20134;-71
2022/05/05 09:29:32;;;;;;;2.22;1.95;;;;;;;11.12;75.72;101958.28;6249281;28;20045;-71
2022/05/05 09:32:36;;;;;;;6.75;1.80;;;;;;;11.26;77.04;101963.91;6248520;28;20049;-70
2022/05/05 09:35:37;;;;;;;3.55;1.58;;;;;;;11.43;72.43;101965.91;6252970;28;20037;-71
2022/05/05 09:38:50;;;;;;;3.08;1.65;;;;;;;11.51;71.45;101965.66;6272220;28;20072;-70
2022/05/05 09:41:54;;;;;;;1.67;1.35;;;;;;;11.59;71.55;101969.72;6267717;28;20049;-70
2022/05/05 09:44:55;;;;;;;4.25;1.48;;;;;;;11.60;74.63;101966.16;6273418;28;20131;-71
2022/05/05 09:47:59;;;;;;;2.85;1.50;;;;;;;11.67;74.82;101961.50;6273611;28;20516;-71
2022/05/05 09:51:01;;;;;;;2.97;1.30;;;;;;;11.83;69.74;101967.06;6272656;28;20041;-71
2022/05/05 09:57:43;;;;;;;2.13;1.20;;;;;;;12.13;72.27;101971.13;6246935;28;20046;-71
2022/05/05 10:00:49;;;;;;;1.83;1.20;;;;;;;12.22;68.77;101962.00;6247971;28;20132;-71
2022/05/05 10:04:01;;;;;;;3.97;1.83;;;;;;;12.28;70.09;101959.09;6248569;28;20053;-71
2022/05/05 10:07:03;;;;;;;3.45;1.98;;;;;;;12.21;69.29;101959.41;6248341;28;20050;-71
2022/05/05 10:10:07;;;;;;;1.48;1.10;;;;;;;12.28;69.14;101961.75;6248324;28;20054;-71
2022/05/05 10:13:08;;;;;;;2.83;1.38;;;;;;;12.35;67.69;101964.97;6272357;28;20129;-71
2022/05/05 10:16:10;;;;;;;11.48;1.90;;;;;;;12.50;67.53;101961.72;6273067;28;20044;-72
2022/05/05 10:19:15;;;;;;;2.10;1.27;;;;;;;12.63;68.12;101952.38;6249168;28;20049;-71
2022/05/05 10:22:20;;;;;;;6.07;1.42;;;;;;;12.81;67.36;101949.84;6248886;28;20187;-71
2022/05/05 10:25:25;;;;;;;5.82;1.65;;;;;;;12.98;69.57;101954.38;6262854;28;20044;-71
2022/05/05 10:28:44;;;;;;;1.98;1.33;;;;;;;13.20;64.05;101958.66;6273142;28;20136;-71
2022/05/05 10:31:47;;;;;;;1.38;1.13;;;;;;;13.29;64.34;101956.56;6272116;28;20267;-71
2022/05/05 10:34:55;;;;;;;2.60;1.13;;;;;;;13.31;62.42;101962.63;6268599;28;20127;-71
2022/05/05 10:37:56;;;;;;;1.88;0.73;;;;;;;13.35;56.46;101951.88;6266892;28;20413;-71
2022/05/05 10:40:58;;;;;;;0.70;0.65;;;;;;;13.43;57.41;101960.28;6246910;28;20053;-72
2022/05/05 10:44:24;;;;;;;1.10;1.00;;;;;;;13.51;58.09;101959.06;6247745;28;20507;-72
2022/05/05 10:47:26;;;;;;;1.35;0.70;;;;;;;13.57;54.17;101956.13;6265374;28;20041;-72
2022/05/05 10:50:30;;;;;;;0.82;0.45;;;;;;;13.73;47.74;101961.59;6262312;28;20057;-72
2022/05/05 10:53:38;;;;;;;1.98;0.60;;;;;;;13.90;49.92;101956.34;6259609;28;20053;-72
2022/05/05 10:56:39;;;;;;;1.23;0.73;;;;;;;14.03;51.38;101952.16;6267335;28;20051;-73
2022/05/05 11:00:08;;;;;;;1.45;0.77;;;;;;;14.19;50.55;101947.00;6267340;28;20053;-73
2022/05/05 11:03:14;;;;;;;1.50;0.65;;;;;;;14.45;51.02;101948.38;6245375;28;20061;-73
2022/05/05 11:06:18;;;;;;;0.77;0.60;;;;;;;14.68;50.49;101947.22;6249996;28;20080;-72
2022/05/05 11:09:29;;;;;;;1.95;0.88;;;;;;;14.79;49.35;101942.22;6270518;28;20049;-72
2022/05/05 11:12:38;;;;;;;2.33;0.90;;;;;;;14.91;49.10;101946.03;6269350;28;20045;-71
2022/05/05 11:22:29;;;;;;;2.03;1.05;;;;;;;15.66;50.59;101942.00;6229025;28;20056;-72
2022/05/05 11:25:30;;;;;;;2.42;1.15;;;;;;;16.04;47.98;101945.16;6271445;28;20522;-71
2022/05/05 11:28:32;;;;;;;2.30;0.80;;;;;;;16.95;47.88;101943.34;6271874;28;20048;-71
2022/05/05 11:31:33;;;;;;;1.63;1.15;;;;;;;18.31;42.67;101945.31;6270579;28;20056;-72
2022/05/05 11:34:36;;;;;;;1.42;0.68;;;;;;;19.57;39.40;101944.56;6270059;28;20048;-72
2022/05/05 11:37:43;;;;;;;2.15;0.80;;;;;;;20.12;36.34;101944.09;6270938;28;20053;-72
2022/05/05 11:40:45;;;;;;;0.70;0.68;;;;;;;21.09;35.68;101952.75;6270756;28;20132;-70
2022/05/05 11:47:11;;;;;;;1.25;0.90;;;;;;;21.67;34.54;101942.78;6271359;28;20041;-70
2022/05/05 11:50:13;;;;;;;1.05;0.73;;;;;;;22.13;32.84;101944.41;6271017;28;20174;-71
2022/05/05 11:53:17;;;;;;;0.82;0.65;;;;;;;21.79;33.25;101942.63;6261661;28;20516;-71
2022/05/05 11:56:18;;;;;;;2.25;1.00;;;;;;;22.52;32.97;101929.44;6246282;28;20046;-71
2022/05/05 12:02:40;;;;;;;7.65;3.63;;;;;;;23.05;31.79;101934.75;6245825;28;20049;-70
2022/05/05 12:05:42;;;;;;;1.02;0.70;;;;;;;23.44;30.96;101927.69;6246467;28;20041;-71
2022/05/05 12:08:44;;;;;;;2.35;0.90;;;;;;;23.28;31.16;101930.88;6263538;28;20052;-71
2022/05/05 12:11:46;;;;;;;0.52;0.52;;;;;;;21.93;30.68;101925.41;6262223;28;20497;-71
2022/05/05 12:14:49;;;;;;;2.58;0.88;;;;;;;22.38;30.89;101925.25;6250913;28;20049;-71
2022/05/05 12:17:57;;;;;;;0.60;0.60;;;;;;;22.66;30.84;101931.78;6269155;28;20486;-71
2022/05/05 12:20:59;;;;;;;0.90;0.90;;;;;;;22.21;30.46;101937.44;6274774;28;20057;-71
2022/05/05 12:24:04;;;;;;;1.23;0.90;;;;;;;22.76;30.70;101929.19;6269922;28;20056;-71
2022/05/05 12:27:07;;;;;;;0.47;0.47;;;;;;;23.20;31.46;101932.53;6274966;28;20419;-71
2022/05/05 12:30:10;;;;;;;0.55;0.50;;;;;;;23.63;30.88;101934.09;6250374;28;20104;-70
2022/05/05 12:33:16;;;;;;;0.68;0.57;;;;;;;23.99;29.17;101936.16;6268596;28;20404;-70
2022/05/05 12:36:18;;;;;;;0.73;0.50;;;;;;;23.58;30.78;101936.34;6260276;28;20130;-70
2022/05/05 12:39:20;;;;;;;1.52;0.50;;;;;;;24.06;28.24;101931.06;6275201;28;20063;-69
2022/05/05 12:42:22;;;;;;;0.90;0.60;;;;;;;23.21;28.91;101931.53;6274509;28;20049;-70
2022/05/05 12:45:24;;;;;;;0.70;0.55;;;;;;;24.65;26.84;101931.91;6274977;28;20050;-70
2022/05/05 12:48:26;;;;;;;1.13;0.43;;;;;;;25.06;26.01;101933.31;6266050;28;20053;-69
2022/05/05 12:51:30;;;;;;;1.13;0.60;;;;;;;24.72;26.73;101933.03;6250827;28;20048;-70
2022/05/05 13:01:21;;;;;;;1.00;0.80;;;;;;;23.78;29.67;101933.59;6249603;28;20058;-71
2022/05/05 13:04:23;;;;;;;1.60;0.52;;;;;;;23.95;29.10;101936.59;6249676;28;20071;-70
2022/05/05 13:07:24;;;;;;;1.40;0.68;;;;;;;24.35;28.80;101932.91;6254036;28;20041;-70
2022/05/05 13:10:27;;;;;;;1.33;0.60;;;;;;;24.90;28.39;101920.50;6273434;28;20052;-70
2022/05/05 13:13:28;;;;;;;2.72;0.70;;;;;;;25.34;26.83;101925.31;6274302;28;20251;-70
2022/05/05 13:16:31;;;;;;;1.35;0.70;;;;;;;25.33;26.59;101926.31;6274148;28;20045;-70
2022/05/05 13:19:32;;;;;;;0.65;0.60;;;;;;;26.04;26.48;101929.97;6274413;28;20484;-70
2022/05/05 13:22:33;;;;;;;1.27;0.60;;;;;;;26.75;24.89;101926.38;6257774;28;20064;-70
2022/05/05 13:25:36;;;;;;;0.73;0.52;;;;;;;26.70;26.11;101925.13;6249904;28;20486;-70
2022/05/05 13:28:37;;;;;;;1.20;0.68;;;;;;;26.75;24.68;101922.78;6249479;28;20429;-70
2022/05/05 13:31:39;;;;;;;0.80;0.68;;;;;;;26.16;24.86;101932.44;6248449;28;20061;-70
2022/05/05 13:34:40;;;;;;;1.10;0.60;;;;;;;26.23;25.05;101926.28;6263776;28;20056;-69
2022/05/05 13:37:41;;;;;;;0.90;0.60;;;;;;;26.41;24.61;101923.56;6262407;28;20045;-70
2022/05/05 13:40:44;;;;;;;1.20;0.60;;;;;;;25.75;27.29;101923.91;6250959;28;20049;-69
2022/05/05 13:43:45;;;;;;;1.48;0.63;;;;;;;25.64;26.69;101925.00;6269777;28;20532;-69
2022/05/05 13:46:47;;;;;;;0.50;0.50;;;;;;;26.17;27.06;101924.22;6250053;28;20056;-69
2022/05/05 13:49:48;;;;;;;3.70;0.93;;;;;;;26.18;25.65;101930.44;6272828;28;20052;-69
2022/05/05 13:52:49;;;;;;;1.67;0.90;;;;;;;26.17;25.73;101926.06;6271905;28;20482;-71
2022/05/05 13:55:52;;;;;;;1.38;0.98;;;;;;;27.44;24.42;101918.28;6252830;28;20041;-70
2022/05/05 13:58:54;;;;;;;1.05;0.70;;;;;;;27.30;24.11;101927.84;6248667;28;20049;-70
2022/05/05 14:01:55;;;;;;;1.17;0.88;;;;;;;26.70;24.09;101933.22;6247847;28;20152;-69
2022/05/05 14:04:56;;;;;;;0.90;0.80;;;;;;;26.31;25.53;101933.59;6247052;28;20524;-69
2022/05/05 14:14:37;;;;;;;1.02;0.80;;;;;;;26.73;24.23;101928.34;6248256;28;20128;-69
2022/05/05 14:17:39;;;;;;;0.57;0.50;;;;;;;28.11;23.55;101926.34;6248431;28;20052;-69
2022/05/05 14:20:40;;;;;;;0.60;0.50;;;;;;;28.52;23.24;101917.28;6248490;28;20068;-70
2022/05/05 14:23:41;;;;;;;0.65;0.63;;;;;;;28.93;22.20;101922.56;6248272;28;20050;-69
2022/05/05 14:26:45;;;;;;;2.35;0.85;;;;;;;28.39;22.88;101925.06;6248194;28;20056;-70
2022/05/05 14:29:48;;;;;;;0.93;0.52;;;;;;;27.08;23.92;101921.16;6247643;28;20057;-70
2022/05/05 14:32:50;;;;;;;1.73;0.65;;;;;;;26.11;25.03;101923.97;6246771;28;20060;-70
2022/05/05 14:35:51;;;;;;;1.15;0.52;;;;;;;26.95;24.44;101920.75;6247610;28;20046;-70
2022/05/05 14:38:52;;;;;;;2.08;1.00;;;;;;;28.44;23.43;101919.13;6266363;28;20041;-70
2022/05/05 14:41:55;;;;;;;1.13;1.00;;;;;;;28.15;23.04;101922.31;6268661;28;20052;-69
2022/05/05 14:44:56;;;;;;;0.55;0.50;;;;;;;25.35;25.07;101927.88;6272358;28;20053;-70
2022/05/05 14:47:58;;;;;;;1.35;0.77;;;;;;;23.79;28.09;101919.16;6272207;28;20052;-70
2022/05/05 14:51:00;;;;;;;0.73;0.60;;;;;;;24.72;28.33;101924.97;6269479;28;20056;-70
2022/05/05 14:54:01;;;;;;;1.20;0.82;;;;;;;27.07;25.88;101911.38;6271807;28;20053;-70
2022/05/05 14:57:05;;;;;;;3.10;0.80;;;;;;;26.93;24.08;101914.63;6270472;28;20041;-70
2022/05/05 15:00:07;;;;;;;4.50;0.82;;;;;;;25.16;26.93;101928.78;6261738;28;20673;-70
2022/05/05 15:03:09;;;;;;;2.17;0.93;;;;;;;24.04;27.87;101919.63;6271321;28;20059;-69
2022/05/05 15:06:10;;;;;;;0.60;0.60;;;;;;;23.68;29.38;101918.47;6256749;28;20489;-70